Elkfork, KY (41421)

9:42 PM EST on February 11, 2016 (GMT -0500)
Keaton | | Change Station
CLOSE
Current Station
Personal Weather Station
Location: Keaton, KY
Elevation: 850 ft
Nearby Weather Stations
Active Advisory: Special Statement Active Notice: Record Report

Elev 850 ft 37.96 °N, 82.98 °W | Updated 10 minutes ago

Clear
Clear
20.1 °F
Feels Like 20 °F
N
0.0
Wind Variable Wind from ENE

Today
High -- | Low -- °F
--% Chance of Precip.
Yesterday
High -- | Low -- °F
Precip. -- in
Pressure 30.27 in
Visibility 10.0 miles
Clouds Clear
Windchill 20 °F
Dew Point 12 °F
Humidity 69%
Rainfall 0.00 in
Snow Depth Not available.
7:27 AM 6:06 PM
Waxing Crescent, 16% visible
METAR KSJS 120235Z AUTO 02004KT 10SM CLR M05/M13 A3027 RMK AO2 T10511133
Pressure 30.27 in
Visibility 10.0 miles
Clouds Clear
Windchill 20 °F
Dew Point 12 °F
Humidity 69%
Rainfall 0.00 in
Snow Depth Not available.
7:27 AM 6:06 PM
Waxing Crescent, 16% visible
METAR KSJS 120235Z AUTO 02004KT 10SM CLR M05/M13 A3027 RMK AO2 T10511133

10-Day Weather Forecast

Almanac

Astronomy

Feb. 11, 2016 Rise Set
Actual Time
Civil Twilight
Nautical Twilight
Astronomical Twilight
Moon
Length of Visible Light
Length of Day
Tomorrow will be .
, % of the Moon is Illuminated

Today's Extremes

State Highs State Lows

Community

WunderPhotos

Upload Photos

1,892,226 photos uploaded!

WunderBlog® & News

Nearby

Air Quality

  Air Quality AQ Index Pollutant
Not available.

Snow Depth

Station Depth Elevation

Earthquake Activity

City Distance Mag. Time & Date
Minimum magnitude displayed is 2.5.

Coastal Water Temperatures

Place Temperature

Stations

Nearby Weather Stations

Station Location Temp. Windchill Dew Point Humidity Wind Precip. Elev Updated Type
                   

Watches & Warnings

Special Statement
Issued: 3:20 PM EST Feb. 11, 2016 – National Weather Service

... Light snow possible late tonight and into Friday...

A clipper system will pass through the region late tonight and
into Friday morning. This will bring light snow showers to eastern
Kentucky through midday Friday. Accumulations for places
generally along and north of the mountain Parkway will mainly be
a half an inch or less through Friday afternoon with amounts
closer to an inch possible further south. There could be times of
reduced visibility and slick spots on area roads from the snow...
potentially affecting the morning commute.


Greif


320 PM EST Thu Feb 11 2016

... Light snow possible late tonight and into Friday...

A clipper system will pass through the region late tonight and
into Friday morning. This will bring light snow showers to eastern
Kentucky through midday Friday. Accumulations for places
generally along and north of the mountain Parkway will mainly be
a half an inch or less through Friday afternoon with amounts
closer to an inch possible further south. There could be times of
reduced visibility and slick spots on area roads from the snow...
potentially affecting the morning commute.


Greif